Time;durP1;ratioP1;P1;durP2;ratioP2;P2;SDS_P1;SDS_P2;PMS_P1;PMS_P2;Temp;Humidity;BMP_temperature;BMP_pressure;BME280_temperature;BME280_humidity;BME280_pressure;Samples;Min_cycle;Max_cycle;Signal;HPM_P1;HPM_P2
2022/11/03 00:00:28;;;;;;;8.50;2.92;;;7.10;99.90;;;;;;5015306;28;20524;-62
2022/11/03 00:02:53;;;;;;;9.68;3.22;;;7.10;99.90;;;;;;5014146;28;20475;-61
2022/11/03 00:08:03;;;;;;;5.10;2.35;;;7.10;99.90;;;;;;5019043;28;20516;-59
2022/11/03 00:10:29;;;;;;;5.63;2.35;;;7.00;99.90;;;;;;5015630;28;20061;-61
2022/11/03 00:12:55;;;;;;;4.25;2.42;;;7.00;99.90;;;;;;5014794;28;20026;-61
2022/11/03 00:15:21;;;;;;;4.45;2.25;;;7.00;99.90;;;;;;5012593;28;20411;-60
2022/11/03 00:17:46;;;;;;;6.38;1.90;;;7.00;99.90;;;;;;5010433;28;20076;-61
2022/11/03 00:20:12;;;;;;;5.90;2.33;;;7.00;99.90;;;;;;5017098;28;20431;-59
2022/11/03 00:22:38;;;;;;;5.57;1.95;;;7.00;99.90;;;;;;5012701;28;20496;-61
2022/11/03 00:25:04;;;;;;;8.27;2.58;;;7.00;99.90;;;;;;5019331;28;20412;-60
2022/11/03 00:27:29;;;;;;;5.40;2.90;;;7.00;99.90;;;;;;5020264;28;20029;-61
2022/11/03 00:29:55;;;;;;;6.88;1.85;;;7.00;99.90;;;;;;5020699;28;20095;-62
2022/11/03 00:32:20;;;;;;;5.47;2.50;;;7.00;99.90;;;;;;5016348;28;20115;-60
2022/11/03 00:34:46;;;;;;;5.65;2.17;;;7.00;99.90;;;;;;5018339;28;20520;-59
2022/11/03 00:37:12;;;;;;;3.80;2.40;;;7.00;99.90;;;;;;5019845;28;20033;-61
2022/11/03 00:39:37;;;;;;;6.35;2.92;;;7.00;99.90;;;;;;5015791;28;20042;-61
2022/11/03 00:42:03;;;;;;;7.78;2.58;;;7.00;99.90;;;;;;5014881;28;20141;-62
2022/11/03 00:44:28;;;;;;;5.82;2.50;;;7.00;99.90;;;;;;5017841;28;20038;-59
2022/11/03 00:46:55;;;;;;;9.25;3.00;;;6.90;99.90;;;;;;5014533;28;20087;-59
2022/11/03 00:49:20;;;;;;;7.43;2.38;;;6.90;99.90;;;;;;5012050;28;20045;-59
2022/11/03 00:51:46;;;;;;;8.85;2.65;;;6.90;99.90;;;;;;5014012;28;20026;-61
2022/11/03 00:54:12;;;;;;;4.82;2.67;;;6.90;99.90;;;;;;5021045;28;20042;-61
2022/11/03 00:56:39;;;;;;;4.57;2.45;;;6.90;99.90;;;;;;5019947;28;20396;-61
2022/11/03 00:59:07;;;;;;;9.18;2.97;;;6.90;99.90;;;;;;5018771;28;20080;-60
2022/11/03 01:01:35;;;;;;;6.35;2.05;;;7.00;99.90;;;;;;5018124;28;20021;-59
2022/11/03 01:06:51;;;;;;;5.47;2.28;;;7.00;99.90;;;;;;5027407;28;20167;-61
2022/11/03 01:09:30;;;;;;;5.18;2.28;;;7.00;99.90;;;;;;5012792;28;20022;-62
2022/11/03 01:12:04;;;;;;;5.30;2.25;;;6.90;99.90;;;;;;5015556;28;20079;-61
2022/11/03 01:14:34;;;;;;;4.82;2.28;;;6.90;99.90;;;;;;5020048;28;20037;-61
2022/11/03 01:17:03;;;;;;;5.03;1.88;;;6.90;99.90;;;;;;5017234;28;20117;-62
2022/11/03 01:19:28;;;;;;;9.23;2.17;;;6.90;99.90;;;;;;5020827;28;20057;-61
2022/11/03 01:21:54;;;;;;;6.57;2.33;;;6.90;99.90;;;;;;5019688;28;20505;-62
2022/11/03 01:24:20;;;;;;;6.32;2.20;;;7.00;99.90;;;;;;5018818;28;20389;-61
2022/11/03 01:26:45;;;;;;;6.38;2.50;;;6.90;99.90;;;;;;5021507;28;20108;-62
2022/11/03 01:29:11;;;;;;;6.78;2.47;;;7.00;99.90;;;;;;5022658;28;20022;-60
2022/11/03 01:31:36;;;;;;;3.65;1.63;;;6.90;99.90;;;;;;5021107;28;20555;-60
2022/11/03 01:34:02;;;;;;;4.63;1.98;;;6.90;99.90;;;;;;5021367;28;20068;-61
2022/11/03 01:36:28;;;;;;;5.72;1.92;;;6.90;99.90;;;;;;5023558;28;20094;-61
2022/11/03 01:38:56;;;;;;;3.88;2.10;;;6.90;99.90;;;;;;5021022;28;20040;-60
2022/11/03 01:41:25;;;;;;;12.52;2.70;;;7.00;99.90;;;;;;5022565;28;20072;-61
2022/11/03 01:44:11;;;;;;;4.28;1.98;;;7.00;99.90;;;;;;5018628;28;20040;-60
2022/11/03 01:46:36;;;;;;;3.80;2.35;;;7.00;99.90;;;;;;5021515;28;20029;-62
2022/11/03 01:49:08;;;;;;;8.60;3.28;;;7.00;99.90;;;;;;5021042;28;20028;-61
2022/11/03 01:51:35;;;;;;;8.23;2.30;;;7.00;99.90;;;;;;5013908;28;20033;-62
2022/11/03 01:54:11;;;;;;;5.00;2.13;;;7.00;99.90;;;;;;5023265;28;20118;-61
2022/11/03 01:56:42;;;;;;;5.28;2.58;;;7.00;99.90;;;;;;5021166;28;20036;-60
2022/11/03 01:59:08;;;;;;;4.47;2.50;;;7.00;99.90;;;;;;5018016;28;20124;-60
2022/11/03 02:01:35;;;;;;;7.40;2.03;;;7.00;99.90;;;;;;5010691;28;20037;-61
2022/11/03 02:04:09;;;;;;;7.10;2.47;;;7.00;99.90;;;;;;5021011;28;20040;-61
2022/11/03 02:06:35;;;;;;;8.77;2.15;;;7.00;99.90;;;;;;5015190;28;20121;-61
2022/11/03 02:09:04;;;;;;;7.50;1.95;;;7.00;99.90;;;;;;5023956;28;20025;-61
2022/11/03 02:14:17;;;;;;;4.30;2.45;;;7.00;99.90;;;;;;5018690;28;20123;-60
2022/11/03 02:16:53;;;;;;;5.65;2.53;;;7.00;99.90;;;;;;5016185;28;20037;-59
2022/11/03 02:19:26;;;;;;;5.38;2.25;;;7.00;99.90;;;;;;5013213;28;20582;-61
2022/11/03 02:22:04;;;;;;;5.22;2.17;;;7.00;99.90;;;;;;5016596;28;20033;-60
2022/11/03 02:24:34;;;;;;;9.15;2.72;;;7.00;99.90;;;;;;5020605;28;20039;-61
2022/11/03 02:27:00;;;;;;;8.52;2.28;;;7.00;99.90;;;;;;5018446;28;20101;-61
2022/11/03 02:29:25;;;;;;;10.35;3.00;;;7.00;99.90;;;;;;5018783;28;20491;-62
2022/11/03 02:32:19;;;;;;;4.47;1.98;;;7.00;99.90;;;;;;5028253;28;20022;-61
2022/11/03 02:34:57;;;;;;;5.55;2.05;;;6.90;99.90;;;;;;5011310;28;20038;-61
2022/11/03 02:37:28;;;;;;;7.72;1.90;;;6.90;99.90;;;;;;5031915;28;20025;-62
2022/11/03 02:40:00;;;;;;;3.53;1.80;;;6.90;99.90;;;;;;5015058;28;20021;-61
2022/11/03 02:42:26;;;;;;;7.30;2.05;;;7.00;99.90;;;;;;5012463;28;20528;-61
2022/11/03 02:44:54;;;;;;;4.80;2.08;;;7.00;99.90;;;;;;5022607;28;20492;-61
2022/11/03 02:47:22;;;;;;;2.92;1.65;;;6.90;99.90;;;;;;5018082;28;20049;-61
2022/11/03 02:49:50;;;;;;;7.43;2.10;;;6.90;99.90;;;;;;5017021;28;20029;-61
2022/11/03 02:52:37;;;;;;;5.28;1.98;;;6.90;99.90;;;;;;5014566;28;20097;-60
2022/11/03 02:55:11;;;;;;;4.90;2.05;;;6.90;99.90;;;;;;5019589;28;20409;-61
2022/11/03 02:57:44;;;;;;;5.60;1.60;;;6.90;99.90;;;;;;5039613;22;20053;-55
2022/11/03 03:00:11;;;;;;;5.15;1.50;;;6.90;99.90;;;;;;5021101;28;20494;-53
2022/11/03 03:02:39;;;;;;;3.88;2.30;;;6.90;99.90;;;;;;5023204;28;20032;-58
2022/11/03 03:05:09;;;;;;;6.25;2.10;;;6.90;99.90;;;;;;5019739;28;20584;-55
2022/11/03 03:07:40;;;;;;;3.65;2.00;;;6.90;99.90;;;;;;5021733;28;20045;-54
2022/11/03 03:10:20;;;;;;;5.03;2.33;;;6.90;99.90;;;;;;5015148;28;20030;-55
2022/11/03 03:12:51;;;;;;;3.22;1.90;;;6.90;99.90;;;;;;5033867;28;20025;-54
2022/11/03 03:15:19;;;;;;;9.77;2.05;;;6.90;99.90;;;;;;5032153;28;20025;-53
2022/11/03 03:18:04;;;;;;;5.13;1.85;;;6.90;99.90;;;;;;5020184;28;20031;-52
2022/11/03 03:21:02;;;;;;;7.97;2.53;;;7.00;99.90;;;;;;5015471;28;20130;-51
2022/11/03 03:23:34;;;;;;;6.57;2.08;;;6.90;99.90;;;;;;5014921;28;20400;-52
2022/11/03 03:26:37;;;;;;;6.28;1.90;;;6.90;99.90;;;;;;5017858;28;20030;-55
2022/11/03 03:29:07;;;;;;;7.70;2.35;;;6.90;99.90;;;;;;4986550;28;20046;-52
2022/11/03 03:31:38;;;;;;;4.68;2.85;;;6.90;99.90;;;;;;5021614;28;20018;-53
2022/11/03 03:34:04;;;;;;;7.10;2.30;;;6.90;99.90;;;;;;5016649;28;20096;-51
2022/11/03 03:36:32;;;;;;;4.65;1.95;;;6.90;99.90;;;;;;5022787;28;20033;-52
2022/11/03 03:39:03;;;;;;;4.22;1.50;;;6.90;99.90;;;;;;5018954;28;20021;-52
2022/11/03 03:41:31;;;;;;;7.80;1.85;;;6.90;99.90;;;;;;5022043;28;20053;-55
2022/11/03 03:44:01;;;;;;;2.10;1.58;;;6.90;99.90;;;;;;5019133;28;20038;-53
2022/11/03 03:46:35;;;;;;;5.25;1.85;;;6.90;99.90;;;;;;5017750;28;20076;-56
2022/11/03 03:49:01;;;;;;;6.68;1.75;;;6.90;99.90;;;;;;5012835;28;20025;-55
2022/11/03 03:51:28;;;;;;;6.10;1.83;;;6.80;99.90;;;;;;5020369;28;20025;-57
2022/11/03 03:53:54;;;;;;;7.65;2.00;;;6.80;99.90;;;;;;5020122;28;20029;-52
2022/11/03 03:56:39;;;;;;;6.85;2.65;;;6.80;99.90;;;;;;5014651;28;20030;-55
2022/11/03 03:59:05;;;;;;;7.15;1.98;;;6.80;99.90;;;;;;5016374;28;20018;-51
2022/11/03 04:01:30;;;;;;;8.80;2.13;;;6.80;99.90;;;;;;5021515;28;20653;-55
2022/11/03 04:03:56;;;;;;;5.18;1.98;;;6.80;99.90;;;;;;5020489;28;20080;-53
2022/11/03 04:06:21;;;;;;;5.22;1.60;;;6.80;99.90;;;;;;5015073;28;20030;-55
2022/11/03 04:08:47;;;;;;;3.88;1.60;;;6.80;99.90;;;;;;5020119;28;20037;-53
2022/11/03 04:22:15;;;;;;;6.53;2.45;;;6.80;99.90;;;;;;5012733;28;20059;-57
2022/11/03 04:24:48;;;;;;;4.15;1.67;;;6.80;99.90;;;;;;5021677;28;20025;-53
2022/11/03 04:27:23;;;;;;;7.60;2.05;;;6.70;99.90;;;;;;5013205;28;20428;-55
2022/11/03 04:29:49;;;;;;;4.38;1.60;;;6.70;99.90;;;;;;5020624;28;20029;-54
2022/11/03 04:32:16;;;;;;;3.33;1.38;;;6.70;99.90;;;;;;5011918;28;20081;-55
2022/11/03 04:34:45;;;;;;;8.57;2.20;;;6.70;99.90;;;;;;5019957;28;20508;-55
2022/11/03 04:37:12;;;;;;;3.28;2.13;;;6.70;99.90;;;;;;5026035;28;20100;-52
2022/11/03 04:39:38;;;;;;;4.15;1.20;;;6.70;99.90;;;;;;5021588;28;20021;-54
2022/11/03 04:42:16;;;;;;;3.47;1.67;;;6.70;99.90;;;;;;5027981;28;20138;-52
2022/11/03 04:44:42;;;;;;;5.13;1.85;;;6.70;99.90;;;;;;5020651;28;20117;-51
2022/11/03 04:47:11;;;;;;;3.47;1.75;;;6.70;99.90;;;;;;5022268;28;20104;-52
2022/11/03 04:49:37;;;;;;;12.13;2.22;;;6.70;99.90;;;;;;5023238;28;20106;-54
2022/11/03 04:52:04;;;;;;;3.38;1.52;;;6.70;99.90;;;;;;5015983;28;20458;-55
2022/11/03 04:54:30;;;;;;;4.32;1.42;;;6.70;99.90;;;;;;5020596;28;20054;-53
2022/11/03 04:56:56;;;;;;;4.93;2.03;;;6.70;99.90;;;;;;5021348;28;20072;-51
2022/11/03 04:59:21;;;;;;;10.50;1.90;;;6.70;99.90;;;;;;5031126;28;20095;-53
2022/11/03 05:01:47;;;;;;;5.38;2.05;;;6.80;99.90;;;;;;5022733;28;20485;-54
2022/11/03 05:04:16;;;;;;;5.43;2.00;;;6.70;99.90;;;;;;5023202;28;20025;-55
2022/11/03 05:06:54;;;;;;;7.80;1.73;;;6.80;99.90;;;;;;5019747;28;20022;-53
2022/11/03 05:09:25;;;;;;;12.48;2.13;;;6.80;99.90;;;;;;5006932;28;20519;-54
2022/11/03 05:11:51;;;;;;;7.22;1.30;;;6.80;99.90;;;;;;5024760;28;20026;-53
2022/11/03 05:14:23;;;;;;;3.60;1.55;;;6.80;99.90;;;;;;5024127;28;20574;-52
2022/11/03 05:16:52;;;;;;;6.88;1.77;;;6.80;99.90;;;;;;5020906;28;20029;-55
2022/11/03 05:19:20;;;;;;;7.60;1.83;;;6.80;99.90;;;;;;5019754;28;20048;-54
2022/11/03 05:21:48;;;;;;;8.63;2.03;;;6.80;99.90;;;;;;5021200;28;20038;-56
2022/11/03 05:24:14;;;;;;;3.00;1.80;;;6.80;99.90;;;;;;5007970;28;20022;-51
2022/11/03 05:26:40;;;;;;;4.32;1.45;;;6.80;99.90;;;;;;5014470;28;20049;-54
2022/11/03 05:29:17;;;;;;;7.70;2.25;;;6.80;99.90;;;;;;5038076;28;20057;-53
2022/11/03 05:31:45;;;;;;;5.28;1.45;;;6.80;99.90;;;;;;5012594;28;20026;-51
2022/11/03 05:34:29;;;;;;;6.25;1.45;;;6.90;99.90;;;;;;5019474;28;20049;-53
2022/11/03 05:36:59;;;;;;;7.80;2.10;;;6.80;99.90;;;;;;5023666;28;20100;-51
2022/11/03 05:39:36;;;;;;;4.18;1.73;;;6.80;99.90;;;;;;5018783;28;20515;-52
2022/11/03 05:42:18;;;;;;;6.38;2.03;;;6.80;99.90;;;;;;5023708;28;20036;-54
2022/11/03 05:44:44;;;;;;;7.97;1.85;;;6.80;99.90;;;;;;5019972;28;20026;-54
2022/11/03 05:47:21;;;;;;;3.08;1.83;;;6.80;99.90;;;;;;5024614;28;20072;-54
2022/11/03 05:49:49;;;;;;;9.35;2.08;;;6.80;99.90;;;;;;5019510;28;20370;-57
2022/11/03 05:52:21;;;;;;;4.97;1.58;;;6.80;99.90;;;;;;5019153;28;20021;-53
2022/11/03 05:54:47;;;;;;;5.07;2.60;;;6.80;99.90;;;;;;5014734;28;20045;-54
2022/11/03 05:57:15;;;;;;;4.35;1.67;;;6.80;99.90;;;;;;5023002;28;20101;-54
2022/11/03 05:59:44;;;;;;;5.97;2.30;;;6.80;99.90;;;;;;5019030;28;20026;-51
2022/11/03 06:02:36;;;;;;;7.97;2.03;;;6.80;99.90;;;;;;5027293;28;20103;-55
2022/11/03 06:05:14;;;;;;;6.47;1.58;;;6.90;99.90;;;;;;5013833;28;20125;-51
2022/11/03 06:07:40;;;;;;;4.97;2.13;;;6.90;99.90;;;;;;5022489;28;20017;-53
2022/11/03 06:10:29;;;;;;;3.50;1.77;;;6.90;99.90;;;;;;5017865;28;20092;-52
2022/11/03 06:13:00;;;;;;;3.28;1.60;;;6.90;99.90;;;;;;5021565;28;20028;-53
2022/11/03 06:15:29;;;;;;;7.07;1.90;;;6.90;99.90;;;;;;5017206;28;20072;-53
2022/11/03 06:17:55;;;;;;;3.58;1.33;;;6.90;99.90;;;;;;5025067;28;20026;-51
2022/11/03 06:20:22;;;;;;;5.43;1.85;;;6.90;99.90;;;;;;5017408;28;20484;-53
2022/11/03 06:22:49;;;;;;;5.07;1.92;;;6.90;99.90;;;;;;5019323;28;20380;-57
2022/11/03 06:25:26;;;;;;;8.57;2.20;;;6.90;99.90;;;;;;5013039;28;20091;-53
2022/11/03 06:27:55;;;;;;;8.20;2.75;;;6.90;99.90;;;;;;5016479;28;20100;-53
2022/11/03 06:30:26;;;;;;;7.60;1.98;;;6.90;99.90;;;;;;5023574;28;20032;-55
2022/11/03 06:33:02;;;;;;;7.97;2.70;;;6.90;99.90;;;;;;5018649;28;20018;-52
2022/11/03 06:35:28;;;;;;;5.43;2.38;;;6.90;99.90;;;;;;5016495;28;20480;-54
2022/11/03 06:37:56;;;;;;;7.68;2.17;;;7.00;99.90;;;;;;5019127;28;20084;-56
2022/11/03 06:40:23;;;;;;;6.55;1.95;;;7.00;99.90;;;;;;5017337;28;20037;-55
2022/11/03 06:42:53;;;;;;;9.23;2.50;;;7.00;99.90;;;;;;5018494;28;20186;-54
2022/11/03 06:45:21;;;;;;;9.88;2.90;;;7.00;99.90;;;;;;5022244;28;20094;-56
2022/11/03 06:47:47;;;;;;;4.97;2.08;;;7.00;99.90;;;;;;5019116;28;20590;-52
2022/11/03 06:50:28;;;;;;;3.17;1.65;;;7.00;99.90;;;;;;5020786;28;20026;-54
2022/11/03 06:52:55;;;;;;;4.13;2.30;;;7.00;99.90;;;;;;5015897;28;20018;-52
2022/11/03 06:55:28;;;;;;;6.93;1.90;;;7.00;99.90;;;;;;5022148;28;20430;-53
2022/11/03 06:57:59;;;;;;;5.90;2.08;;;7.10;99.90;;;;;;5019470;28;20046;-52
2022/11/03 07:00:29;;;;;;;6.97;2.17;;;7.10;99.90;;;;;;5021636;28;20072;-56
2022/11/03 07:02:55;;;;;;;5.63;2.28;;;7.10;99.90;;;;;;5020249;28;20073;-56
2022/11/03 07:05:23;;;;;;;5.95;2.58;;;7.10;99.90;;;;;;5021701;28;20056;-52
2022/11/03 07:07:53;;;;;;;3.85;1.90;;;7.20;99.90;;;;;;5013494;28;20049;-56
2022/11/03 07:10:18;;;;;;;8.02;2.25;;;7.20;99.90;;;;;;5014584;28;20106;-52
2022/11/03 07:12:44;;;;;;;7.30;2.17;;;7.20;99.90;;;;;;5022156;28;20029;-53
2022/11/03 07:15:25;;;;;;;4.70;2.13;;;7.20;99.90;;;;;;5021522;28;20125;-55
2022/11/03 07:17:51;;;;;;;9.98;2.40;;;7.20;99.90;;;;;;5023850;28;20017;-53
2022/11/03 07:20:17;;;;;;;5.70;1.70;;;7.20;99.90;;;;;;5014172;28;20716;-58
2022/11/03 07:22:46;;;;;;;6.85;2.63;;;7.30;99.90;;;;;;5023925;28;20028;-57
2022/11/03 07:25:20;;;;;;;5.50;1.92;;;7.30;99.90;;;;;;5018057;28;20017;-56
2022/11/03 07:27:50;;;;;;;8.00;2.00;;;7.30;99.90;;;;;;5024184;28;20025;-53
2022/11/03 07:30:21;;;;;;;6.47;2.65;;;7.40;99.90;;;;;;5013383;28;20430;-54
2022/11/03 07:32:49;;;;;;;9.88;3.20;;;7.40;99.90;;;;;;5017629;28;20026;-53
2022/11/03 07:35:17;;;;;;;5.55;2.60;;;7.40;99.90;;;;;;5012050;28;20022;-52
2022/11/03 07:37:48;;;;;;;6.32;2.35;;;7.50;99.90;;;;;;5011951;28;20018;-52
2022/11/03 07:40:26;;;;;;;3.33;2.38;;;7.50;99.90;;;;;;5010997;28;20060;-52
2022/11/03 07:42:56;;;;;;;10.48;2.80;;;7.50;99.90;;;;;;5014829;28;20018;-56
2022/11/03 07:45:40;;;;;;;6.93;2.50;;;7.50;99.90;;;;;;5024340;28;20060;-56
2022/11/03 07:48:33;;;;;;;5.28;2.20;;;7.60;99.90;;;;;;5018796;28;20026;-56
2022/11/03 07:51:04;;;;;;;3.40;2.05;;;7.60;99.90;;;;;;5015529;28;20507;-53
2022/11/03 07:53:41;;;;;;;4.43;2.47;;;7.60;99.90;;;;;;5020958;28;20105;-56
2022/11/03 07:56:20;;;;;;;9.35;3.47;;;7.60;99.90;;;;;;5032403;28;20030;-52
2022/11/03 07:58:49;;;;;;;7.60;3.05;;;7.70;99.90;;;;;;5022093;28;20020;-54
2022/11/03 08:01:30;;;;;;;7.95;2.70;;;7.70;99.90;;;;;;5015211;28;20029;-52
2022/11/03 08:04:00;;;;;;;5.43;1.77;;;7.70;99.90;;;;;;5008643;28;20412;-55
2022/11/03 08:06:26;;;;;;;6.10;1.92;;;7.80;99.90;;;;;;5017985;28;20079;-56
2022/11/03 08:08:51;;;;;;;6.80;1.80;;;7.80;99.90;;;;;;5019863;28;20047;-53
2022/11/03 08:11:17;;;;;;;7.07;2.15;;;7.80;99.90;;;;;;5023074;28;20014;-57
2022/11/03 08:13:43;;;;;;;5.15;2.50;;;7.90;99.90;;;;;;5020876;28;20400;-57
2022/11/03 08:16:08;;;;;;;3.55;1.45;;;7.90;99.90;;;;;;5021757;28;20048;-57
2022/11/03 08:18:35;;;;;;;5.78;2.20;;;7.90;99.90;;;;;;5021839;28;20037;-53
2022/11/03 08:21:01;;;;;;;7.15;2.35;;;8.00;99.90;;;;;;5020426;28;20365;-56
2022/11/03 08:23:27;;;;;;;6.53;2.45;;;8.00;99.90;;;;;;5018056;28;20037;-56
2022/11/03 08:25:52;;;;;;;6.47;2.03;;;8.00;99.90;;;;;;5014714;28;20497;-55
2022/11/03 08:28:18;;;;;;;6.63;2.03;;;8.00;99.90;;;;;;5016810;28;20056;-52
2022/11/03 08:30:43;;;;;;;4.47;1.88;;;8.10;99.90;;;;;;5022590;28;20068;-54
2022/11/03 08:33:09;;;;;;;5.47;2.10;;;8.10;99.90;;;;;;5023629;28;20044;-54
2022/11/03 08:35:34;;;;;;;6.60;2.35;;;8.10;99.90;;;;;;5022407;28;20128;-52
2022/11/03 08:38:00;;;;;;;8.25;2.42;;;8.20;99.90;;;;;;5015913;28;20029;-54
2022/11/03 08:40:26;;;;;;;4.38;2.08;;;8.30;99.90;;;;;;5037774;28;20064;-55
2022/11/03 08:42:51;;;;;;;9.65;2.10;;;8.30;99.90;;;;;;5018287;28;20026;-52
2022/11/03 08:45:17;;;;;;;5.10;2.08;;;8.30;99.90;;;;;;5028500;28;20018;-54
2022/11/03 08:47:42;;;;;;;8.90;2.70;;;8.40;99.90;;;;;;5017614;28;20022;-55
2022/11/03 08:50:08;;;;;;;6.75;2.33;;;8.40;99.90;;;;;;5016722;28;20040;-59
2022/11/03 08:52:34;;;;;;;7.75;1.92;;;8.50;99.90;;;;;;5019751;28;20045;-53
2022/11/03 08:54:59;;;;;;;6.47;2.38;;;8.50;99.90;;;;;;5020989;28;20034;-54
2022/11/03 08:57:25;;;;;;;4.78;1.98;;;8.60;99.90;;;;;;5026120;28;20025;-54
2022/11/03 08:59:51;;;;;;;5.20;2.15;;;8.60;99.90;;;;;;5019580;28;20018;-52
2022/11/03 09:02:17;;;;;;;6.90;2.15;;;8.70;99.90;;;;;;5024387;28;20017;-56
2022/11/03 09:04:43;;;;;;;5.38;1.45;;;8.70;99.90;;;;;;5021525;28;20373;-54
2022/11/03 09:07:08;;;;;;;8.23;2.30;;;8.80;99.90;;;;;;5022975;28;20454;-57
2022/11/03 09:09:34;;;;;;;4.57;1.70;;;8.90;99.90;;;;;;5023811;28;20448;-53
2022/11/03 09:12:00;;;;;;;3.90;1.83;;;8.90;99.90;;;;;;5022654;28;20496;-56
2022/11/03 09:14:25;;;;;;;4.15;1.65;;;9.00;99.90;;;;;;5023803;28;20064;-55
2022/11/03 09:16:51;;;;;;;5.22;1.63;;;9.00;99.90;;;;;;5021201;28;20032;-54
2022/11/03 09:19:16;;;;;;;12.50;2.55;;;9.10;99.90;;;;;;5023349;28;20037;-55
2022/11/03 09:21:42;;;;;;;7.55;2.22;;;9.20;99.90;;;;;;5023132;28;20087;-53
2022/11/03 09:24:07;;;;;;;6.55;2.42;;;9.20;99.90;;;;;;5022423;28;20510;-53
2022/11/03 09:26:33;;;;;;;6.15;2.17;;;9.30;99.90;;;;;;5023396;28;20543;-58
2022/11/03 09:28:59;;;;;;;5.95;1.75;;;9.30;99.90;;;;;;5022593;28;20029;-57
2022/11/03 09:31:27;;;;;;;7.32;1.95;;;9.40;99.90;;;;;;5022875;28;20399;-54
2022/11/03 09:33:53;;;;;;;4.05;1.77;;;9.50;99.90;;;;;;5020679;28;20464;-53
2022/11/03 09:36:18;;;;;;;5.10;2.13;;;9.60;99.90;;;;;;5023310;28;20056;-52
2022/11/03 09:38:44;;;;;;;11.05;3.08;;;9.70;99.90;;;;;;5020888;28;20564;-56
2022/11/03 09:41:16;;;;;;;4.20;2.10;;;9.80;99.90;;;;;;5022497;28;20549;-59
2022/11/03 09:43:45;;;;;;;5.93;2.22;;;9.80;99.90;;;;;;5022841;28;20523;-54
2022/11/03 09:46:11;;;;;;;8.52;2.72;;;9.90;99.90;;;;;;5022256;28;20030;-56
2022/11/03 09:48:37;;;;;;;7.18;2.22;;;10.00;99.90;;;;;;5021920;28;20041;-53
2022/11/03 09:51:03;;;;;;;3.13;1.50;;;10.00;99.90;;;;;;5032275;28;20057;-53
2022/11/03 09:53:32;;;;;;;7.55;2.05;;;10.10;99.90;;;;;;5022724;28;20502;-53
2022/11/03 09:55:58;;;;;;;7.40;1.65;;;10.10;99.90;;;;;;5003896;28;20025;-54
2022/11/03 09:58:25;;;;;;;5.32;2.22;;;10.30;99.90;;;;;;5022445;28;20022;-56
2022/11/03 10:00:50;;;;;;;9.20;2.30;;;10.30;99.90;;;;;;5020298;28;20021;-53
2022/11/03 10:03:17;;;;;;;5.63;2.33;;;10.40;99.90;;;;;;5022444;28;20543;-58
2022/11/03 10:05:46;;;;;;;5.25;2.53;;;10.40;99.90;;;;;;5012669;28;20022;-55
2022/11/03 10:08:35;;;;;;;8.50;2.67;;;10.40;99.90;;;;;;5023074;28;20137;-56
2022/11/03 10:11:03;;;;;;;10.45;2.67;;;10.50;99.90;;;;;;5023931;28;20021;-58
2022/11/03 10:13:51;;;;;;;5.88;2.15;;;10.60;99.90;;;;;;5019020;28;20041;-59
2022/11/03 10:16:20;;;;;;;4.30;1.83;;;10.60;99.90;;;;;;5022475;28;20013;-57
2022/11/03 10:18:46;;;;;;;4.50;1.90;;;10.70;99.90;;;;;;5020123;28;20025;-57
2022/11/03 10:21:18;;;;;;;8.05;1.92;;;10.70;99.90;;;;;;5021872;28;20514;-56
2022/11/03 10:23:44;;;;;;;5.05;1.80;;;10.80;99.90;;;;;;5018652;28;20097;-58
2022/11/03 10:26:18;;;;;;;8.93;2.10;;;10.80;99.90;;;;;;5012720;28;20113;-58
2022/11/03 10:29:02;;;;;;;9.90;2.15;;;10.90;99.90;;;;;;5015421;28;20052;-57
2022/11/03 10:31:49;;;;;;;5.85;2.00;;;10.90;99.90;;;;;;5014826;28;20026;-55
2022/11/03 10:34:38;;;;;;;4.90;2.10;;;11.00;99.90;;;;;;5016608;28;20024;-54
2022/11/03 10:37:23;;;;;;;6.53;1.80;;;11.00;99.90;;;;;;5019535;28;20048;-58
2022/11/03 10:39:51;;;;;;;6.82;1.63;;;11.00;99.90;;;;;;5022520;28;20198;-58
2022/11/03 10:42:56;;;;;;;5.82;1.90;;;11.10;99.90;;;;;;5012274;28;20182;-55
2022/11/03 10:45:22;;;;;;;7.43;1.50;;;11.10;99.90;;;;;;5010425;28;20025;-57
2022/11/03 10:48:03;;;;;;;7.50;1.75;;;11.10;99.90;;;;;;5018046;28;20022;-59
2022/11/03 10:50:29;;;;;;;4.03;1.45;;;11.20;99.90;;;;;;5006955;28;20080;-55
2022/11/03 10:52:55;;;;;;;5.18;2.10;;;11.20;99.90;;;;;;5018792;28;20022;-55
2022/11/03 10:55:23;;;;;;;4.90;2.05;;;11.30;99.90;;;;;;5021906;28;20029;-56
2022/11/03 10:57:48;;;;;;;6.03;1.50;;;11.30;99.90;;;;;;5020643;28;20034;-53
2022/11/03 11:00:18;;;;;;;6.65;1.55;;;11.30;99.90;;;;;;5015618;28;20483;-58
2022/11/03 11:02:46;;;;;;;3.85;1.48;;;11.40;99.90;;;;;;5021159;28;20489;-58
2022/11/03 11:05:22;;;;;;;7.35;1.70;;;11.40;99.90;;;;;;5020917;28;20151;-55
2022/11/03 11:07:52;;;;;;;5.75;1.77;;;11.40;99.90;;;;;;5021832;28;20064;-57
2022/11/03 11:10:21;;;;;;;9.02;1.98;;;11.50;99.90;;;;;;5019080;28;20021;-55
2022/11/03 11:13:21;;;;;;;6.63;1.83;;;11.50;99.90;;;;;;5021732;28;20022;-52
2022/11/03 11:15:49;;;;;;;3.95;1.20;;;11.60;99.90;;;;;;5030121;28;20030;-52
2022/11/03 11:18:30;;;;;;;4.97;1.85;;;11.70;99.90;;;;;;5018125;28;20427;-61
2022/11/03 11:21:20;;;;;;;6.10;1.33;;;11.70;99.90;;;;;;5019187;28;20037;-56
2022/11/03 11:23:47;;;;;;;5.13;1.98;;;11.80;99.90;;;;;;5017702;28;20111;-55
2022/11/03 11:26:13;;;;;;;6.05;1.73;;;11.80;99.90;;;;;;5021341;28;20112;-53
2022/11/03 11:28:44;;;;;;;4.13;2.00;;;11.90;99.90;;;;;;5022259;28;20544;-57
2022/11/03 11:31:31;;;;;;;4.72;2.20;;;12.00;99.90;;;;;;5020862;28;20116;-60
2022/11/03 11:34:15;;;;;;;5.93;1.83;;;12.10;99.90;;;;;;5019263;28;20388;-53
2022/11/03 11:36:54;;;;;;;5.15;1.80;;;12.10;99.90;;;;;;5021536;28;20029;-56
2022/11/03 11:39:25;;;;;;;6.65;2.03;;;12.20;99.90;;;;;;5020318;28;20029;-53
2022/11/03 11:42:12;;;;;;;4.63;1.90;;;12.20;99.90;;;;;;5020305;28;20470;-55
2022/11/03 11:44:44;;;;;;;5.18;1.67;;;12.30;99.90;;;;;;5008338;28;20029;-53
2022/11/03 11:47:42;;;;;;;5.18;1.77;;;12.40;99.90;;;;;;5023006;28;20046;-56
2022/11/03 11:50:10;;;;;;;5.68;1.60;;;12.40;99.90;;;;;;5035373;28;20053;-53
2022/11/03 11:52:57;;;;;;;3.15;1.83;;;12.40;99.90;;;;;;5014518;28;20040;-52
2022/11/03 11:55:37;;;;;;;7.50;1.67;;;12.50;99.90;;;;;;5009581;28;20029;-56
2022/11/03 11:58:11;;;;;;;3.03;1.55;;;12.50;99.90;;;;;;5010663;28;20037;-52
2022/11/03 12:00:36;;;;;;;2.70;1.33;;;12.50;99.90;;;;;;5011382;28;20021;-53
2022/11/03 12:03:05;;;;;;;4.70;1.30;;;12.60;99.90;;;;;;5011793;28;20025;-57
2022/11/03 12:05:33;;;;;;;4.55;1.52;;;12.60;99.90;;;;;;5011376;28;20064;-55
2022/11/03 12:07:59;;;;;;;4.85;2.10;;;12.60;99.90;;;;;;5010913;28;20034;-55
2022/11/03 12:10:27;;;;;;;3.47;1.65;;;12.60;99.90;;;;;;5010944;28;20405;-53
2022/11/03 12:12:54;;;;;;;5.65;1.52;;;12.60;99.90;;;;;;5011323;28;20510;-54
2022/11/03 12:15:54;;;;;;;4.47;2.22;;;12.60;99.90;;;;;;5009023;28;20416;-55
2022/11/03 12:18:41;;;;;;;5.35;1.65;;;12.60;99.90;;;;;;5011009;28;20440;-56
2022/11/03 12:21:14;;;;;;;5.05;1.33;;;12.60;99.90;;;;;;5012260;28;20041;-54
2022/11/03 12:23:45;;;;;;;2.63;1.33;;;12.70;99.90;;;;;;5010809;28;20069;-53
2022/11/03 12:26:16;;;;;;;4.53;1.55;;;12.70;99.90;;;;;;5012935;28;20204;-53
2022/11/03 12:28:43;;;;;;;5.47;1.75;;;12.70;99.90;;;;;;5026312;28;20392;-54
2022/11/03 12:31:08;;;;;;;7.45;1.70;;;12.70;99.90;;;;;;5028004;28;20030;-55
2022/11/03 12:33:34;;;;;;;5.35;1.45;;;12.70;99.90;;;;;;5010018;28;20495;-54
2022/11/03 12:36:00;;;;;;;5.65;1.60;;;12.70;99.90;;;;;;5023353;28;20017;-53
2022/11/03 12:38:26;;;;;;;5.38;2.10;;;12.70;99.90;;;;;;5010828;28;20025;-56
2022/11/03 12:40:52;;;;;;;7.97;2.42;;;12.70;99.90;;;;;;5011557;28;20097;-55
2022/11/03 12:43:18;;;;;;;3.90;1.42;;;12.80;99.90;;;;;;5012006;28;20026;-56
2022/11/03 12:45:43;;;;;;;5.85;1.83;;;12.80;99.90;;;;;;5011168;28;20055;-55
2022/11/03 12:48:09;;;;;;;3.00;1.85;;;12.80;99.90;;;;;;5010341;28;20160;-56
2022/11/03 12:50:36;;;;;;;4.18;1.73;;;12.90;99.90;;;;;;5009284;28;20018;-57
2022/11/03 12:53:03;;;;;;;4.22;1.77;;;13.00;99.90;;;;;;5012522;28;20029;-57
2022/11/03 12:55:29;;;;;;;5.55;1.38;;;13.00;99.90;;;;;;5012258;28;20029;-52
2022/11/03 12:57:54;;;;;;;4.38;1.90;;;13.00;99.90;;;;;;5015449;28;20068;-53
2022/11/03 13:00:20;;;;;;;8.13;1.40;;;13.00;99.90;;;;;;5015275;28;20057;-52
2022/11/03 13:02:46;;;;;;;2.83;1.40;;;13.10;99.90;;;;;;5012035;28;20049;-58
2022/11/03 13:05:14;;;;;;;4.47;1.42;;;13.10;99.90;;;;;;5016112;28;20514;-58
2022/11/03 13:07:40;;;;;;;3.72;1.80;;;13.10;99.90;;;;;;5016183;28;20091;-55
2022/11/03 13:10:06;;;;;;;6.90;2.00;;;13.10;99.90;;;;;;5013429;28;20029;-55
2022/11/03 13:12:32;;;;;;;5.13;1.83;;;13.10;99.90;;;;;;5012000;28;20032;-55
2022/11/03 13:14:59;;;;;;;8.75;1.77;;;13.10;99.90;;;;;;5014208;28;20018;-56
2022/11/03 13:17:25;;;;;;;3.17;1.67;;;13.00;99.90;;;;;;5014165;28;20021;-52
2022/11/03 13:19:51;;;;;;;6.20;1.58;;;13.00;99.90;;;;;;5012939;28;20022;-57
2022/11/03 13:22:18;;;;;;;4.28;1.67;;;13.00;99.90;;;;;;5013811;28;20040;-54
2022/11/03 13:24:44;;;;;;;5.88;1.85;;;13.00;99.90;;;;;;5014021;28;20030;-53
2022/11/03 13:27:09;;;;;;;4.68;1.95;;;13.00;99.90;;;;;;5011320;28;20028;-55